sensor_id;sensor_type;location;lat;lon;timestamp;P1;P2;P0
69746;PMS7003;57018;50.278;19.134;2024-03-06T00:02:14;64.00;49.00;35.00
69746;PMS7003;57018;50.278;19.134;2024-03-06T00:04:44;65.00;53.00;31.00
69746;PMS7003;57018;50.278;19.134;2024-03-06T00:07:15;63.00;53.00;31.00
69746;PMS7003;57018;50.278;19.134;2024-03-06T00:09:47;58.00;47.00;30.00
69746;PMS7003;57018;50.278;19.134;2024-03-06T00:12:17;69.00;53.50;32.50
69746;PMS7003;57018;50.278;19.134;2024-03-06T00:14:47;69.00;51.67;31.33
69746;PMS7003;57018;50.278;19.134;2024-03-06T00:17:18;68.00;52.00;30.00
69746;PMS7003;57018;50.278;19.134;2024-03-06T00:19:48;66.33;51.33;33.00
69746;PMS7003;57018;50.278;19.134;2024-03-06T00:22:18;74.00;58.00;33.50
69746;PMS7003;57018;50.278;19.134;2024-03-06T00:24:48;72.00;57.00;35.00
69746;PMS7003;57018;50.278;19.134;2024-03-06T00:27:18;76.00;58.00;36.00
69746;PMS7003;57018;50.278;19.134;2024-03-06T00:29:51;78.00;59.00;34.00
69746;PMS7003;57018;50.278;19.134;2024-03-06T00:32:27;80.50;62.50;39.50
69746;PMS7003;57018;50.278;19.134;2024-03-06T00:35:03;81.00;63.00;38.00
69746;PMS7003;57018;50.278;19.134;2024-03-06T00:37:34;81.00;61.00;38.00
69746;PMS7003;57018;50.278;19.134;2024-03-06T00:40:04;82.00;59.00;38.00
69746;PMS7003;57018;50.278;19.134;2024-03-06T00:42:37;74.67;58.67;35.67
69746;PMS7003;57018;50.278;19.134;2024-03-06T00:45:09;77.25;62.00;38.25
69746;PMS7003;57018;50.278;19.134;2024-03-06T00:47:39;79.00;62.00;39.00
69746;PMS7003;57018;50.278;19.134;2024-03-06T00:50:10;82.00;63.00;37.50
69746;PMS7003;57018;50.278;19.134;2024-03-06T00:52:40;76.25;57.25;35.25
69746;PMS7003;57018;50.278;19.134;2024-03-06T00:55:10;77.50;59.50;36.00
69746;PMS7003;57018;50.278;19.134;2024-03-06T00:57:43;69.00;58.00;35.00
69746;PMS7003;57018;50.278;19.134;2024-03-06T01:00:14;80.00;59.50;35.00
69746;PMS7003;57018;50.278;19.134;2024-03-06T01:02:45;79.00;62.33;37.33
69746;PMS7003;57018;50.278;19.134;2024-03-06T01:05:15;81.00;60.00;37.00
69746;PMS7003;57018;50.278;19.134;2024-03-06T01:07:45;77.00;58.00;36.00
69746;PMS7003;57018;50.278;19.134;2024-03-06T01:10:18;68.00;54.00;31.00
69746;PMS7003;57018;50.278;19.134;2024-03-06T01:12:48;75.00;59.00;36.00
69746;PMS7003;57018;50.278;19.134;2024-03-06T01:15:18;73.00;58.00;36.50
69746;PMS7003;57018;50.278;19.134;2024-03-06T01:17:51;73.00;57.00;35.00
69746;PMS7003;57018;50.278;19.134;2024-03-06T01:20:23;79.00;59.50;36.50
69746;PMS7003;57018;50.278;19.134;2024-03-06T01:22:53;73.00;58.33;36.00
69746;PMS7003;57018;50.278;19.134;2024-03-06T01:25:23;74.50;57.50;36.50
69746;PMS7003;57018;50.278;19.134;2024-03-06T01:27:54;72.00;57.00;35.00
69746;PMS7003;57018;50.278;19.134;2024-03-06T01:30:24;63.50;52.00;31.00
69746;PMS7003;57018;50.278;19.134;2024-03-06T01:32:59;70.75;56.00;34.75
69746;PMS7003;57018;50.278;19.134;2024-03-06T01:35:30;66.00;50.00;30.00
69746;PMS7003;57018;50.278;19.134;2024-03-06T01:38:02;62.67;50.67;35.00
69746;PMS7003;57018;50.278;19.134;2024-03-06T01:40:33;65.00;49.50;30.00
69746;PMS7003;57018;50.278;19.134;2024-03-06T01:43:03;69.00;54.00;34.00
69746;PMS7003;57018;50.278;19.134;2024-03-06T01:45:33;49.50;39.00;26.00
69746;PMS7003;57018;50.278;19.134;2024-03-06T01:48:04;60.00;49.00;30.00
69746;PMS7003;57018;50.278;19.134;2024-03-06T01:50:36;65.50;49.00;31.50
69746;PMS7003;57018;50.278;19.134;2024-03-06T01:53:06;64.67;50.67;31.00
69746;PMS7003;57018;50.278;19.134;2024-03-06T01:55:36;40.00;35.50;15.00
69746;PMS7003;57018;50.278;19.134;2024-03-06T01:58:07;59.00;45.50;30.00
69746;PMS7003;57018;50.278;19.134;2024-03-06T02:00:38;56.50;45.00;29.50
69746;PMS7003;57018;50.278;19.134;2024-03-06T02:03:08;60.00;46.00;29.00
69746;PMS7003;57018;50.278;19.134;2024-03-06T02:05:39;49.00;43.00;26.00
69746;PMS7003;57018;50.278;19.134;2024-03-06T02:08:11;65.50;54.00;31.50
69746;PMS7003;57018;50.278;19.134;2024-03-06T02:10:42;67.50;50.50;31.00
69746;PMS7003;57018;50.278;19.134;2024-03-06T02:13:13;64.67;52.00;32.00
69746;PMS7003;57018;50.278;19.134;2024-03-06T02:15:45;62.50;48.00;29.00
69746;PMS7003;57018;50.278;19.134;2024-03-06T02:18:16;56.75;46.25;29.50
69746;PMS7003;57018;50.278;19.134;2024-03-06T02:20:46;64.00;46.50;28.50
69746;PMS7003;57018;50.278;19.134;2024-03-06T02:23:17;61.50;47.50;30.00
69746;PMS7003;57018;50.278;19.134;2024-03-06T02:25:48;59.50;47.50;29.50
69746;PMS7003;57018;50.278;19.134;2024-03-06T02:28:18;56.50;44.50;26.00
69746;PMS7003;57018;50.278;19.134;2024-03-06T02:30:51;61.50;46.50;26.50
69746;PMS7003;57018;50.278;19.134;2024-03-06T02:33:21;55.00;43.00;27.00
69746;PMS7003;57018;50.278;19.134;2024-03-06T02:35:54;57.50;41.50;26.00
69746;PMS7003;57018;50.278;19.134;2024-03-06T02:38:24;56.67;46.67;30.00
69746;PMS7003;57018;50.278;19.134;2024-03-06T02:40:59;54.50;46.00;28.50
69746;PMS7003;57018;50.278;19.134;2024-03-06T02:43:31;54.50;46.00;29.00
69746;PMS7003;57018;50.278;19.134;2024-03-06T02:46:02;49.00;41.00;26.00
69746;PMS7003;57018;50.278;19.134;2024-03-06T02:48:33;52.00;44.00;28.00
69746;PMS7003;57018;50.278;19.134;2024-03-06T02:51:03;58.00;46.50;27.50
69746;PMS7003;57018;50.278;19.134;2024-03-06T02:53:36;53.50;43.00;26.50
69746;PMS7003;57018;50.278;19.134;2024-03-06T02:56:07;61.00;47.50;30.25
69746;PMS7003;57018;50.278;19.134;2024-03-06T02:58:46;48.75;40.25;26.00
69746;PMS7003;57018;50.278;19.134;2024-03-06T03:01:16;53.00;39.00;24.00
69746;PMS7003;57018;50.278;19.134;2024-03-06T03:03:47;54.00;45.00;29.67
69746;PMS7003;57018;50.278;19.134;2024-03-06T03:06:18;57.00;42.50;26.00
69746;PMS7003;57018;50.278;19.134;2024-03-06T03:08:51;62.50;49.00;29.50
69746;PMS7003;57018;50.278;19.134;2024-03-06T03:11:21;60.00;45.50;28.00
69746;PMS7003;57018;50.278;19.134;2024-03-06T03:13:53;53.50;42.50;28.00
69746;PMS7003;57018;50.278;19.134;2024-03-06T03:16:26;44.67;39.33;25.33
69746;PMS7003;57018;50.278;19.134;2024-03-06T03:18:57;58.00;42.00;23.50
69746;PMS7003;57018;50.278;19.134;2024-03-06T03:21:27;58.50;46.50;29.00
69746;PMS7003;57018;50.278;19.134;2024-03-06T03:23:57;44.00;33.00;22.00
69746;PMS7003;57018;50.278;19.134;2024-03-06T03:26:29;44.50;38.50;23.00
69746;PMS7003;57018;50.278;19.134;2024-03-06T03:28:59;61.33;48.00;28.33
69746;PMS7003;57018;50.278;19.134;2024-03-06T03:31:32;52.00;39.00;25.50
69746;PMS7003;57018;50.278;19.134;2024-03-06T03:34:05;59.33;46.67;29.67
69746;PMS7003;57018;50.278;19.134;2024-03-06T03:36:41;57.50;46.50;29.00
69746;PMS7003;57018;50.278;19.134;2024-03-06T03:39:11;55.50;41.00;24.25
69746;PMS7003;57018;50.278;19.134;2024-03-06T03:41:46;63.00;47.00;29.00
69746;PMS7003;57018;50.278;19.134;2024-03-06T03:44:17;57.00;47.00;30.00
69746;PMS7003;57018;50.278;19.134;2024-03-06T03:46:48;52.50;41.50;26.00
69746;PMS7003;57018;50.278;19.134;2024-03-06T03:49:18;47.00;41.50;26.00
69746;PMS7003;57018;50.278;19.134;2024-03-06T03:51:48;43.50;38.00;26.00
69746;PMS7003;57018;50.278;19.134;2024-03-06T03:54:18;47.00;40.00;26.33
69746;PMS7003;57018;50.278;19.134;2024-03-06T03:56:51;46.00;40.00;26.50
69746;PMS7003;57018;50.278;19.134;2024-03-06T03:59:21;51.00;38.00;25.00
69746;PMS7003;57018;50.278;19.134;2024-03-06T04:01:52;46.00;39.00;26.00
69746;PMS7003;57018;50.278;19.134;2024-03-06T04:04:26;45.50;40.00;22.00
69746;PMS7003;57018;50.278;19.134;2024-03-06T04:06:57;42.33;39.67;22.67
69746;PMS7003;57018;50.278;19.134;2024-03-06T04:09:28;39.50;36.50;21.50
69746;PMS7003;57018;50.278;19.134;2024-03-06T04:11:58;46.00;42.67;24.00
69746;PMS7003;57018;50.278;19.134;2024-03-06T04:14:29;35.67;35.00;21.00
69746;PMS7003;57018;50.278;19.134;2024-03-06T04:16:59;45.00;35.50;20.50
69746;PMS7003;57018;50.278;19.134;2024-03-06T04:19:33;43.00;35.00;24.00
69746;PMS7003;57018;50.278;19.134;2024-03-06T04:22:05;38.33;35.67;20.33
69746;PMS7003;57018;50.278;19.134;2024-03-06T04:24:35;37.00;35.00;21.33
69746;PMS7003;57018;50.278;19.134;2024-03-06T04:27:09;37.50;33.00;23.50
69746;PMS7003;57018;50.278;19.134;2024-03-06T04:29:38;36.67;35.67;21.67
69746;PMS7003;57018;50.278;19.134;2024-03-06T04:32:09;49.50;36.50;18.75
69746;PMS7003;57018;50.278;19.134;2024-03-06T04:34:42;41.00;33.00;20.00
69746;PMS7003;57018;50.278;19.134;2024-03-06T04:37:14;25.67;23.33;14.00
69746;PMS7003;57018;50.278;19.134;2024-03-06T04:39:47;38.00;33.00;19.50
69746;PMS7003;57018;50.278;19.134;2024-03-06T04:42:19;35.50;30.00;14.50
69746;PMS7003;57018;50.278;19.134;2024-03-06T04:44:51;37.00;36.00;22.00
69746;PMS7003;57018;50.278;19.134;2024-03-06T04:47:25;37.75;30.50;21.75
69746;PMS7003;57018;50.278;19.134;2024-03-06T04:49:58;43.00;33.00;19.00
69746;PMS7003;57018;50.278;19.134;2024-03-06T04:52:28;40.00;33.00;24.00
69746;PMS7003;57018;50.278;19.134;2024-03-06T04:54:59;40.00;35.00;25.00
69746;PMS7003;57018;50.278;19.134;2024-03-06T04:57:30;44.00;38.00;26.00
69746;PMS7003;57018;50.278;19.134;2024-03-06T05:00:00;40.00;37.00;22.00
69746;PMS7003;57018;50.278;19.134;2024-03-06T05:02:35;47.00;42.67;26.00
69746;PMS7003;57018;50.278;19.134;2024-03-06T05:05:05;51.00;42.33;23.00
69746;PMS7003;57018;50.278;19.134;2024-03-06T05:07:36;38.00;34.00;21.33
69746;PMS7003;57018;50.278;19.134;2024-03-06T05:10:07;39.67;38.33;23.33
69746;PMS7003;57018;50.278;19.134;2024-03-06T05:12:37;46.25;39.50;24.25
69746;PMS7003;57018;50.278;19.134;2024-03-06T05:15:07;48.00;41.00;26.00
69746;PMS7003;57018;50.278;19.134;2024-03-06T05:17:39;54.00;45.00;28.00
69746;PMS7003;57018;50.278;19.134;2024-03-06T05:20:10;48.00;40.50;23.00
69746;PMS7003;57018;50.278;19.134;2024-03-06T05:22:41;38.50;33.00;23.50
69746;PMS7003;57018;50.278;19.134;2024-03-06T05:25:11;46.00;41.00;27.00
69746;PMS7003;57018;50.278;19.134;2024-03-06T05:27:41;45.50;38.75;24.50
69746;PMS7003;57018;50.278;19.134;2024-03-06T05:30:11;44.00;37.50;23.50
69746;PMS7003;57018;50.278;19.134;2024-03-06T05:32:42;39.50;33.50;22.50
69746;PMS7003;57018;50.278;19.134;2024-03-06T05:35:13;48.00;39.00;23.00
69746;PMS7003;57018;50.278;19.134;2024-03-06T05:37:44;40.00;36.00;20.00
69746;PMS7003;57018;50.278;19.134;2024-03-06T05:40:14;43.00;38.00;22.00
69746;PMS7003;57018;50.278;19.134;2024-03-06T05:42:44;45.50;39.00;24.00
69746;PMS7003;57018;50.278;19.134;2024-03-06T05:45:14;43.67;33.33;19.00
69746;PMS7003;57018;50.278;19.134;2024-03-06T05:47:45;38.00;32.67;18.33
69746;PMS7003;57018;50.278;19.134;2024-03-06T05:50:16;45.67;39.33;22.33
69746;PMS7003;57018;50.278;19.134;2024-03-06T05:52:46;45.00;40.50;24.50
69746;PMS7003;57018;50.278;19.134;2024-03-06T05:55:17;46.00;41.00;24.00
69746;PMS7003;57018;50.278;19.134;2024-03-06T05:57:47;43.33;38.00;25.00
69746;PMS7003;57018;50.278;19.134;2024-03-06T06:00:18;50.75;41.00;25.25
69746;PMS7003;57018;50.278;19.134;2024-03-06T06:02:48;44.50;38.50;23.50
69746;PMS7003;57018;50.278;19.134;2024-03-06T06:05:19;44.00;39.00;24.00
69746;PMS7003;57018;50.278;19.134;2024-03-06T06:07:51;46.67;39.33;24.67
69746;PMS7003;57018;50.278;19.134;2024-03-06T06:10:21;40.50;37.50;22.50
69746;PMS7003;57018;50.278;19.134;2024-03-06T06:12:51;46.50;39.00;20.50
69746;PMS7003;57018;50.278;19.134;2024-03-06T06:15:21;33.67;32.33;23.33
69746;PMS7003;57018;50.278;19.134;2024-03-06T06:17:52;42.25;36.50;18.50
69746;PMS7003;57018;50.278;19.134;2024-03-06T06:20:22;43.67;39.00;24.33
69746;PMS7003;57018;50.278;19.134;2024-03-06T06:22:52;35.00;30.00;22.00
69746;PMS7003;57018;50.278;19.134;2024-03-06T06:25:23;37.33;30.33;20.67
69746;PMS7003;57018;50.278;19.134;2024-03-06T06:27:56;50.50;40.00;24.00
69746;PMS7003;57018;50.278;19.134;2024-03-06T06:30:26;26.00;20.00;7.00
69746;PMS7003;57018;50.278;19.134;2024-03-06T06:32:56;42.00;39.00;22.00
69746;PMS7003;57018;50.278;19.134;2024-03-06T06:35:26;46.67;41.33;27.00
69746;PMS7003;57018;50.278;19.134;2024-03-06T06:37:59;42.00;32.00;22.00
69746;PMS7003;57018;50.278;19.134;2024-03-06T06:40:29;47.00;39.00;25.00
69746;PMS7003;57018;50.278;19.134;2024-03-06T06:43:03;46.00;34.50;18.00
69746;PMS7003;57018;50.278;19.134;2024-03-06T06:45:35;46.50;42.00;25.00
69746;PMS7003;57018;50.278;19.134;2024-03-06T06:48:06;56.50;42.50;25.00
69746;PMS7003;57018;50.278;19.134;2024-03-06T06:50:37;46.00;38.50;24.50
69746;PMS7003;57018;50.278;19.134;2024-03-06T06:53:14;49.50;41.50;22.00
69746;PMS7003;57018;50.278;19.134;2024-03-06T06:55:49;38.67;35.67;23.00
69746;PMS7003;57018;50.278;19.134;2024-03-06T06:58:19;45.00;40.50;25.50
69746;PMS7003;57018;50.278;19.134;2024-03-06T07:00:54;50.00;39.50;22.50
69746;PMS7003;57018;50.278;19.134;2024-03-06T07:03:24;48.00;39.00;21.00
69746;PMS7003;57018;50.278;19.134;2024-03-06T07:05:56;55.50;43.50;26.50
69746;PMS7003;57018;50.278;19.134;2024-03-06T07:08:29;53.00;43.50;27.00
69746;PMS7003;57018;50.278;19.134;2024-03-06T07:10:59;52.50;42.00;25.00
69746;PMS7003;57018;50.278;19.134;2024-03-06T07:13:32;52.75;42.75;27.00
69746;PMS7003;57018;50.278;19.134;2024-03-06T07:16:04;56.00;42.50;27.50
69746;PMS7003;57018;50.278;19.134;2024-03-06T07:18:36;54.00;42.50;27.00
69746;PMS7003;57018;50.278;19.134;2024-03-06T07:21:06;50.33;42.33;24.33
69746;PMS7003;57018;50.278;19.134;2024-03-06T07:23:39;48.50;39.50;23.75
69746;PMS7003;57018;50.278;19.134;2024-03-06T07:26:09;56.00;47.00;29.00
69746;PMS7003;57018;50.278;19.134;2024-03-06T07:28:39;51.00;40.00;27.00
69746;PMS7003;57018;50.278;19.134;2024-03-06T07:31:09;47.00;38.50;24.00
69746;PMS7003;57018;50.278;19.134;2024-03-06T07:33:42;43.50;35.00;21.00
69746;PMS7003;57018;50.278;19.134;2024-03-06T07:36:14;43.33;40.00;26.67
69746;PMS7003;57018;50.278;19.134;2024-03-06T07:38:47;46.00;37.00;24.00
69746;PMS7003;57018;50.278;19.134;2024-03-06T07:41:17;46.00;38.67;25.00
69746;PMS7003;57018;50.278;19.134;2024-03-06T07:43:47;56.50;45.50;27.00
69746;PMS7003;57018;50.278;19.134;2024-03-06T07:46:17;52.00;41.00;25.00
69746;PMS7003;57018;50.278;19.134;2024-03-06T07:48:47;50.00;41.00;23.00
69746;PMS7003;57018;50.278;19.134;2024-03-06T07:51:21;53.33;42.67;27.00
69746;PMS7003;57018;50.278;19.134;2024-03-06T07:53:53;54.25;41.25;26.00
69746;PMS7003;57018;50.278;19.134;2024-03-06T07:56:28;45.33;34.67;22.67
69746;PMS7003;57018;50.278;19.134;2024-03-06T07:58:59;51.50;37.00;21.50
69746;PMS7003;57018;50.278;19.134;2024-03-06T08:01:29;37.00;35.00;21.00
69746;PMS7003;57018;50.278;19.134;2024-03-06T08:04:04;45.75;38.25;23.00
69746;PMS7003;57018;50.278;19.134;2024-03-06T08:06:35;55.67;44.00;27.00
69746;PMS7003;57018;50.278;19.134;2024-03-06T08:09:05;57.00;47.00;28.00
69746;PMS7003;57018;50.278;19.134;2024-03-06T08:11:36;55.50;44.00;29.00
69746;PMS7003;57018;50.278;19.134;2024-03-06T08:14:06;58.00;45.00;28.00
69746;PMS7003;57018;50.278;19.134;2024-03-06T08:16:39;50.50;42.50;25.50
69746;PMS7003;57018;50.278;19.134;2024-03-06T08:19:09;53.00;43.50;25.00
69746;PMS7003;57018;50.278;19.134;2024-03-06T08:21:39;52.00;43.00;27.33
69746;PMS7003;57018;50.278;19.134;2024-03-06T08:24:09;44.00;39.00;24.00
69746;PMS7003;57018;50.278;19.134;2024-03-06T08:26:44;55.00;45.50;29.00
69746;PMS7003;57018;50.278;19.134;2024-03-06T08:29:15;56.00;46.00;28.00
69746;PMS7003;57018;50.278;19.134;2024-03-06T08:31:50;50.50;40.00;24.50
69746;PMS7003;57018;50.278;19.134;2024-03-06T08:34:20;56.50;44.00;25.00
69746;PMS7003;57018;50.278;19.134;2024-03-06T08:36:53;55.67;43.67;27.33
69746;PMS7003;57018;50.278;19.134;2024-03-06T08:39:24;37.33;33.33;22.33
69746;PMS7003;57018;50.278;19.134;2024-03-06T08:41:53;49.67;40.00;24.00
69746;PMS7003;57018;50.278;19.134;2024-03-06T08:44:25;47.00;36.50;24.50
69746;PMS7003;57018;50.278;19.134;2024-03-06T08:46:57;45.00;38.00;23.67
69746;PMS7003;57018;50.278;19.134;2024-03-06T08:49:27;50.50;41.00;26.50
69746;PMS7003;57018;50.278;19.134;2024-03-06T08:51:57;47.00;38.50;23.00
69746;PMS7003;57018;50.278;19.134;2024-03-06T08:54:30;50.00;38.00;24.00
69746;PMS7003;57018;50.278;19.134;2024-03-06T08:57:00;48.00;40.00;24.00
69746;PMS7003;57018;50.278;19.134;2024-03-06T08:59:31;43.00;35.00;22.00
69746;PMS7003;57018;50.278;19.134;2024-03-06T09:02:15;37.75;33.50;22.50
69746;PMS7003;57018;50.278;19.134;2024-03-06T09:04:48;40.50;35.00;22.50
69746;PMS7003;57018;50.278;19.134;2024-03-06T09:07:19;46.50;36.50;23.50
69746;PMS7003;57018;50.278;19.134;2024-03-06T09:09:52;42.50;35.50;22.00
69746;PMS7003;57018;50.278;19.134;2024-03-06T09:12:22;50.25;38.00;23.50
69746;PMS7003;57018;50.278;19.134;2024-03-06T09:14:52;42.00;35.67;22.67
69746;PMS7003;57018;50.278;19.134;2024-03-06T09:17:27;45.25;38.75;23.00
69746;PMS7003;57018;50.278;19.134;2024-03-06T09:20:01;46.00;37.00;23.00
69746;PMS7003;57018;50.278;19.134;2024-03-06T09:22:37;43.50;38.00;24.00
69746;PMS7003;57018;50.278;19.134;2024-03-06T09:25:08;39.00;35.00;23.00
69746;PMS7003;57018;50.278;19.134;2024-03-06T09:27:40;43.00;36.50;24.00
69746;PMS7003;57018;50.278;19.134;2024-03-06T09:30:12;51.00;40.00;25.00
69746;PMS7003;57018;50.278;19.134;2024-03-06T09:32:44;50.25;40.25;24.75
69746;PMS7003;57018;50.278;19.134;2024-03-06T09:35:17;39.00;33.50;19.00
69746;PMS7003;57018;50.278;19.134;2024-03-06T09:37:52;33.00;27.00;13.00
69746;PMS7003;57018;50.278;19.134;2024-03-06T09:40:27;50.25;38.50;24.50
69746;PMS7003;57018;50.278;19.134;2024-03-06T09:42:58;45.00;37.50;24.00
69746;PMS7003;57018;50.278;19.134;2024-03-06T09:45:29;51.00;41.50;24.00
69746;PMS7003;57018;50.278;19.134;2024-03-06T09:48:05;42.00;36.00;24.00
69746;PMS7003;57018;50.278;19.134;2024-03-06T09:50:36;41.50;34.00;20.00
69746;PMS7003;57018;50.278;19.134;2024-03-06T09:53:13;42.00;36.33;24.33
69746;PMS7003;57018;50.278;19.134;2024-03-06T09:55:45;54.50;42.00;26.00
69746;PMS7003;57018;50.278;19.134;2024-03-06T09:58:16;43.00;37.00;22.00
69746;PMS7003;57018;50.278;19.134;2024-03-06T10:00:46;41.33;36.67;22.00
69746;PMS7003;57018;50.278;19.134;2024-03-06T10:03:18;42.00;36.00;25.00
69746;PMS7003;57018;50.278;19.134;2024-03-06T10:05:51;47.00;38.00;23.00
69746;PMS7003;57018;50.278;19.134;2024-03-06T10:08:23;49.00;38.00;25.00
69746;PMS7003;57018;50.278;19.134;2024-03-06T10:10:53;51.00;38.67;23.00
69746;PMS7003;57018;50.278;19.134;2024-03-06T10:13:26;54.33;41.67;26.00
69746;PMS7003;57018;50.278;19.134;2024-03-06T10:15:59;48.00;38.00;22.67
69746;PMS7003;57018;50.278;19.134;2024-03-06T10:18:35;52.00;38.00;25.00
69746;PMS7003;57018;50.278;19.134;2024-03-06T10:21:08;53.67;42.00;25.67
69746;PMS7003;57018;50.278;19.134;2024-03-06T10:23:44;47.00;40.50;24.50
69746;PMS7003;57018;50.278;19.134;2024-03-06T10:26:16;42.00;38.00;23.50
69746;PMS7003;57018;50.278;19.134;2024-03-06T10:28:51;56.50;44.00;27.50
69746;PMS7003;57018;50.278;19.134;2024-03-06T10:31:27;54.25;42.75;27.50
69746;PMS7003;57018;50.278;19.134;2024-03-06T10:33:57;53.00;43.00;25.00
69746;PMS7003;57018;50.278;19.134;2024-03-06T10:36:30;50.00;40.00;25.00
69746;PMS7003;57018;50.278;19.134;2024-03-06T10:39:04;56.00;42.50;26.00
69746;PMS7003;57018;50.278;19.134;2024-03-06T10:41:40;45.00;38.00;23.00
69746;PMS7003;57018;50.278;19.134;2024-03-06T10:44:13;58.00;44.00;27.00
69746;PMS7003;57018;50.278;19.134;2024-03-06T10:46:45;61.00;46.50;28.00
69746;PMS7003;57018;50.278;19.134;2024-03-06T10:49:20;53.00;42.00;23.00
69746;PMS7003;57018;50.278;19.134;2024-03-06T10:51:55;53.50;42.50;27.00
69746;PMS7003;57018;50.278;19.134;2024-03-06T10:54:28;53.50;38.75;25.25
69746;PMS7003;57018;50.278;19.134;2024-03-06T10:56:59;41.33;38.33;26.67
69746;PMS7003;57018;50.278;19.134;2024-03-06T10:59:30;53.67;41.67;26.00
69746;PMS7003;57018;50.278;19.134;2024-03-06T11:02:03;52.00;40.50;26.00
69746;PMS7003;57018;50.278;19.134;2024-03-06T11:04:35;57.00;44.00;26.50
69746;PMS7003;57018;50.278;19.134;2024-03-06T11:07:08;47.00;39.00;25.50
69746;PMS7003;57018;50.278;19.134;2024-03-06T11:09:38;54.50;41.75;26.25
69746;PMS7003;57018;50.278;19.134;2024-03-06T11:12:09;52.00;41.00;25.00
69746;PMS7003;57018;50.278;19.134;2024-03-06T11:14:40;51.00;40.00;24.00
69746;PMS7003;57018;50.278;19.134;2024-03-06T11:17:10;53.00;41.00;26.00
69746;PMS7003;57018;50.278;19.134;2024-03-06T11:25:58;43.00;39.00;25.00
69746;PMS7003;57018;50.278;19.134;2024-03-06T11:28:31;47.50;37.50;21.00
69746;PMS7003;57018;50.278;19.134;2024-03-06T11:31:04;44.67;38.33;22.00
69746;PMS7003;57018;50.278;19.134;2024-03-06T11:33:38;37.00;34.67;22.00
69746;PMS7003;57018;50.278;19.134;2024-03-06T11:36:18;43.00;36.00;21.00
69746;PMS7003;57018;50.278;19.134;2024-03-06T11:38:53;39.50;34.00;21.50
69746;PMS7003;57018;50.278;19.134;2024-03-06T11:41:28;37.00;33.50;20.50
69746;PMS7003;57018;50.278;19.134;2024-03-06T11:44:00;41.50;35.00;20.50
69746;PMS7003;57018;50.278;19.134;2024-03-06T11:46:44;42.50;36.00;24.00
69746;PMS7003;57018;50.278;19.134;2024-03-06T11:49:20;37.00;31.00;18.00
69746;PMS7003;57018;50.278;19.134;2024-03-06T11:51:58;35.00;35.00;21.00
69746;PMS7003;57018;50.278;19.134;2024-03-06T11:54:34;47.50;39.00;24.50
69746;PMS7003;57018;50.278;19.134;2024-03-06T11:57:05;47.67;35.67;23.67
69746;PMS7003;57018;50.278;19.134;2024-03-06T11:59:37;41.00;38.00;24.00
69746;PMS7003;57018;50.278;19.134;2024-03-06T12:02:08;49.00;36.67;22.67
69746;PMS7003;57018;50.278;19.134;2024-03-06T12:04:42;39.00;36.00;22.50
69746;PMS7003;57018;50.278;19.134;2024-03-06T12:07:12;37.50;35.50;21.50
69746;PMS7003;57018;50.278;19.134;2024-03-06T12:09:43;39.00;34.00;21.33
69746;PMS7003;57018;50.278;19.134;2024-03-06T12:12:13;37.33;34.33;21.67
69746;PMS7003;57018;50.278;19.134;2024-03-06T12:14:43;37.00;32.00;20.00
69746;PMS7003;57018;50.278;19.134;2024-03-06T12:17:23;36.00;32.00;21.00
69746;PMS7003;57018;50.278;19.134;2024-03-06T12:19:54;38.33;34.33;23.00
69746;PMS7003;57018;50.278;19.134;2024-03-06T12:22:26;37.00;36.00;24.00
69746;PMS7003;57018;50.278;19.134;2024-03-06T12:25:00;42.00;37.67;24.00
69746;PMS7003;57018;50.278;19.134;2024-03-06T12:27:31;32.00;30.00;20.00
69746;PMS7003;57018;50.278;19.134;2024-03-06T12:30:01;41.00;37.50;22.50
69746;PMS7003;57018;50.278;19.134;2024-03-06T12:32:36;38.67;36.00;22.00
69746;PMS7003;57018;50.278;19.134;2024-03-06T12:35:07;32.00;26.50;19.50
69746;PMS7003;57018;50.278;19.134;2024-03-06T12:37:38;43.50;35.00;24.00
69746;PMS7003;57018;50.278;19.134;2024-03-06T12:40:09;39.75;32.75;20.00
69746;PMS7003;57018;50.278;19.134;2024-03-06T12:42:40;40.00;36.00;24.00
69746;PMS7003;57018;50.278;19.134;2024-03-06T12:45:13;37.00;36.00;22.00
69746;PMS7003;57018;50.278;19.134;2024-03-06T12:47:43;46.00;38.00;25.00
69746;PMS7003;57018;50.278;19.134;2024-03-06T12:50:16;42.50;36.00;21.00
69746;PMS7003;57018;50.278;19.134;2024-03-06T12:52:49;44.00;35.00;22.00
69746;PMS7003;57018;50.278;19.134;2024-03-06T12:55:23;40.50;33.50;22.50
69746;PMS7003;57018;50.278;19.134;2024-03-06T12:57:53;50.50;37.00;25.00
69746;PMS7003;57018;50.278;19.134;2024-03-06T13:00:26;47.00;40.00;25.00
69746;PMS7003;57018;50.278;19.134;2024-03-06T13:03:01;51.50;41.00;26.50
69746;PMS7003;57018;50.278;19.134;2024-03-06T13:05:31;48.00;42.00;27.00
69746;PMS7003;57018;50.278;19.134;2024-03-06T13:08:04;57.00;44.00;29.00
69746;PMS7003;57018;50.278;19.134;2024-03-06T13:10:35;46.75;40.50;27.25
69746;PMS7003;57018;50.278;19.134;2024-03-06T13:13:07;49.50;41.00;27.50
69746;PMS7003;57018;50.278;19.134;2024-03-06T13:15:39;52.00;41.00;27.00
69746;PMS7003;57018;50.278;19.134;2024-03-06T13:18:09;56.50;44.00;26.50
69746;PMS7003;57018;50.278;19.134;2024-03-06T13:20:39;55.50;44.00;30.50
69746;PMS7003;57018;50.278;19.134;2024-03-06T13:23:09;53.00;42.00;26.00
69746;PMS7003;57018;50.278;19.134;2024-03-06T13:25:42;53.33;45.33;27.67
69746;PMS7003;57018;50.278;19.134;2024-03-06T13:28:13;52.50;43.00;31.00
69746;PMS7003;57018;50.278;19.134;2024-03-06T13:30:43;56.67;45.33;28.00
69746;PMS7003;57018;50.278;19.134;2024-03-06T13:33:13;55.33;44.00;27.33
69746;PMS7003;57018;50.278;19.134;2024-03-06T13:35:43;52.50;41.00;28.00
69746;PMS7003;57018;50.278;19.134;2024-03-06T13:38:13;56.67;46.67;31.00
69746;PMS7003;57018;50.278;19.134;2024-03-06T13:40:44;61.00;46.00;30.50
69746;PMS7003;57018;50.278;19.134;2024-03-06T13:43:15;60.50;48.25;28.50
69746;PMS7003;57018;50.278;19.134;2024-03-06T13:45:50;60.50;49.00;31.00
69746;PMS7003;57018;50.278;19.134;2024-03-06T13:48:20;64.67;47.33;29.00
69746;PMS7003;57018;50.278;19.134;2024-03-06T13:50:50;63.00;48.50;30.50
69746;PMS7003;57018;50.278;19.134;2024-03-06T13:53:21;59.00;49.00;31.00
69746;PMS7003;57018;50.278;19.134;2024-03-06T13:55:56;62.00;47.00;30.50
69746;PMS7003;57018;50.278;19.134;2024-03-06T13:58:26;52.33;41.67;28.33
69746;PMS7003;57018;50.278;19.134;2024-03-06T14:00:56;48.50;38.00;29.00
69746;PMS7003;57018;50.278;19.134;2024-03-06T14:03:29;60.00;47.00;29.00
69746;PMS7003;57018;50.278;19.134;2024-03-06T14:06:01;58.33;43.33;27.33